createdAt,value
2023-05-23T00:01:44.898Z,16.73
2023-05-23T00:04:46.491Z,16.69
2023-05-23T00:07:48.279Z,16.69
2023-05-23T00:10:50.288Z,16.67
2023-05-23T00:13:53.224Z,16.65
2023-05-23T00:16:55.129Z,16.63
2023-05-23T00:19:56.959Z,16.61
2023-05-23T00:22:58.960Z,16.60
2023-05-23T00:26:00.737Z,16.58
2023-05-23T00:29:03.086Z,16.55
2023-05-23T00:32:04.923Z,16.52
2023-05-23T00:35:07.431Z,16.48
2023-05-23T00:38:10.874Z,16.44
2023-05-23T00:41:12.665Z,16.41
2023-05-23T00:44:14.594Z,16.38
2023-05-23T00:47:17.276Z,16.35
2023-05-23T00:50:20.281Z,16.31
2023-05-23T00:53:22.238Z,16.28
2023-05-23T00:56:26.191Z,16.25
2023-05-23T00:59:28.488Z,16.22
2023-05-23T01:02:32.942Z,16.18
2023-05-23T01:05:34.728Z,16.16
2023-05-23T01:08:36.878Z,16.13
2023-05-23T01:11:43.097Z,16.09
2023-05-23T01:14:51.271Z,16.08
2023-05-23T01:18:07.677Z,16.05
2023-05-23T01:21:16.535Z,16.01
2023-05-23T01:24:35.755Z,15.98
2023-05-23T01:27:40.408Z,15.95
2023-05-23T01:30:45.263Z,15.94
2023-05-23T01:33:49.925Z,15.92
2023-05-23T01:36:57.410Z,15.89
2023-05-23T01:39:59.265Z,15.87
2023-05-23T01:43:02.079Z,15.85
2023-05-23T01:46:05.851Z,15.82
2023-05-23T01:49:11.907Z,15.81
2023-05-23T01:52:15.039Z,15.78
2023-05-23T01:55:22.048Z,15.76
2023-05-23T01:58:24.265Z,15.73
2023-05-23T02:01:26.236Z,15.69
2023-05-23T02:04:28.241Z,15.67
2023-05-23T02:07:29.996Z,15.64
2023-05-23T02:10:31.728Z,15.61
2023-05-23T02:13:35.862Z,15.59
2023-05-23T02:16:37.642Z,15.57
2023-05-23T02:19:39.821Z,15.54
2023-05-23T02:22:41.614Z,15.51
2023-05-23T02:25:45.067Z,15.48
2023-05-23T02:28:46.846Z,15.46
2023-05-23T02:31:52.630Z,15.43
2023-05-23T02:34:56.335Z,15.41
2023-05-23T02:37:59.623Z,15.39
2023-05-23T02:41:01.408Z,15.36
2023-05-23T02:44:03.226Z,15.36
2023-05-23T02:47:05.277Z,15.32
2023-05-23T02:50:08.920Z,15.29
2023-05-23T02:53:10.529Z,15.26
2023-05-23T02:56:12.843Z,15.24
2023-05-23T02:59:14.423Z,15.20
2023-05-23T03:02:16.358Z,15.18
2023-05-23T03:05:18.376Z,15.14
2023-05-23T03:08:20.196Z,15.11
2023-05-23T03:11:22.165Z,15.09
2023-05-23T03:14:23.952Z,15.06
2023-05-23T03:17:25.777Z,15.03
2023-05-23T03:20:27.671Z,15.00
2023-05-23T03:23:29.730Z,14.98
2023-05-23T03:26:31.962Z,14.97
2023-05-23T03:29:33.653Z,14.96
2023-05-23T03:32:35.587Z,14.96
2023-05-23T03:35:37.384Z,14.94
2023-05-23T03:38:39.205Z,14.93
2023-05-23T03:41:41.194Z,14.92
2023-05-23T03:44:44.019Z,14.91
2023-05-23T03:47:46.187Z,14.92
2023-05-23T03:50:48.107Z,14.93
2023-05-23T03:53:50.021Z,14.92
2023-05-23T03:56:52.670Z,14.93
2023-05-23T03:59:55.132Z,14.93
2023-05-23T04:02:57.579Z,14.95
2023-05-23T04:06:01.029Z,14.95
2023-05-23T04:09:03.181Z,14.94
2023-05-23T04:12:09.095Z,14.94
2023-05-23T04:15:11.381Z,14.94
2023-05-23T04:18:22.921Z,14.96
2023-05-23T04:21:24.927Z,14.98
2023-05-23T04:24:38.405Z,15.00
2023-05-23T04:27:40.616Z,15.03
2023-05-23T04:30:44.050Z,15.05
2023-05-23T04:33:46.506Z,15.09
2023-05-23T04:36:49.699Z,15.12
2023-05-23T04:39:52.528Z,15.17
2023-05-23T04:43:26.847Z,15.22
2023-05-23T04:46:33.204Z,15.29
2023-05-23T04:49:45.573Z,15.34
2023-05-23T04:52:47.428Z,15.40
2023-05-23T04:55:49.509Z,15.47
2023-05-23T04:58:53.327Z,15.56
2023-05-23T05:01:55.237Z,15.63
2023-05-23T05:04:59.552Z,15.72
2023-05-23T05:08:02.021Z,15.80
2023-05-23T05:11:04.000Z,15.87
2023-05-23T05:14:05.760Z,15.95
2023-05-23T05:17:07.679Z,16.05
2023-05-23T05:20:17.690Z,16.14
2023-05-23T05:23:20.361Z,16.25
2023-05-23T05:26:23.407Z,16.35
2023-05-23T05:29:26.147Z,16.46
2023-05-23T05:32:28.520Z,16.57
2023-05-23T05:35:30.941Z,16.69
2023-05-23T05:38:32.802Z,16.84
2023-05-23T05:41:34.537Z,16.96
2023-05-23T05:44:36.391Z,17.08
2023-05-23T05:47:38.302Z,17.21
2023-05-23T05:50:40.430Z,17.34
2023-05-23T05:53:42.385Z,17.47
2023-05-23T05:56:44.134Z,17.61
2023-05-23T05:59:46.117Z,17.75
2023-05-23T06:02:48.103Z,17.87
2023-05-23T06:05:53.217Z,17.97
2023-05-23T06:08:55.920Z,18.09
2023-05-23T06:11:57.921Z,18.18
2023-05-23T06:14:59.879Z,18.28
2023-05-23T06:18:02.340Z,18.37
2023-05-23T06:21:05.316Z,18.46
2023-05-23T06:24:07.899Z,18.56
2023-05-23T06:27:09.941Z,18.66
2023-05-23T06:30:12.209Z,18.76
2023-05-23T06:33:14.392Z,18.85
2023-05-23T06:36:17.321Z,18.96
2023-05-23T06:39:19.037Z,19.06
2023-05-23T06:42:20.953Z,19.17
2023-05-23T06:45:51.876Z,19.31
2023-05-23T06:49:02.676Z,19.43
2023-05-23T06:52:15.773Z,19.53
2023-05-23T06:55:18.797Z,19.63
2023-05-23T06:58:22.091Z,19.71
2023-05-23T07:01:24.159Z,19.80
2023-05-23T07:04:27.799Z,19.89
2023-05-23T07:07:30.966Z,19.99
2023-05-23T07:10:34.723Z,20.10
2023-05-23T07:13:42.822Z,20.21
2023-05-23T07:16:48.889Z,20.32
2023-05-23T07:19:52.126Z,20.43
2023-05-23T07:22:56.722Z,20.55
2023-05-23T07:26:02.548Z,20.67
2023-05-23T07:29:26.324Z,20.82
2023-05-23T07:32:28.426Z,20.94
2023-05-23T07:35:30.427Z,21.08
2023-05-23T07:38:32.518Z,21.20
2023-05-23T07:41:34.393Z,21.33
2023-05-23T07:44:37.530Z,21.45
2023-05-23T07:47:40.675Z,21.58
2023-05-23T07:50:43.253Z,21.71
2023-05-23T07:53:45.033Z,21.79
2023-05-23T07:56:47.659Z,21.87
2023-05-23T07:59:53.502Z,21.92
2023-05-23T08:02:55.434Z,21.94
2023-05-23T08:06:02.084Z,21.94
2023-05-23T08:09:06.031Z,21.92
2023-05-23T08:12:09.283Z,21.91
2023-05-23T08:15:11.476Z,21.95
2023-05-23T08:18:19.743Z,22.01
2023-05-23T08:21:23.719Z,22.10
2023-05-23T08:24:26.314Z,22.24
2023-05-23T08:27:29.704Z,22.36
2023-05-23T08:30:33.168Z,22.48
2023-05-23T08:33:35.381Z,22.62
2023-05-23T08:36:39.391Z,22.76
2023-05-23T08:39:42.821Z,22.86
2023-05-23T08:43:09.813Z,23.01
2023-05-23T08:46:13.776Z,23.16
2023-05-23T08:49:17.950Z,23.30
2023-05-23T08:52:22.960Z,23.44
2023-05-23T08:55:29.352Z,23.59
2023-05-23T08:58:33.718Z,23.76
2023-05-23T09:01:39.098Z,23.91
2023-05-23T09:04:42.561Z,24.02
2023-05-23T09:07:54.394Z,24.16
2023-05-23T09:10:56.441Z,24.26
2023-05-23T09:13:58.870Z,24.38
2023-05-23T09:17:04.213Z,24.52
2023-05-23T09:20:13.673Z,24.62
2023-05-23T09:23:19.782Z,24.73
2023-05-23T09:26:22.039Z,24.83
2023-05-23T09:29:23.682Z,24.95
2023-05-23T09:32:25.597Z,25.04
2023-05-23T09:35:28.192Z,25.13
2023-05-23T09:38:30.351Z,25.26
2023-05-23T09:41:35.318Z,25.36
2023-05-23T09:44:42.393Z,25.48
2023-05-23T09:47:54.012Z,25.59
2023-05-23T09:50:56.058Z,25.70
2023-05-23T09:53:57.948Z,25.81
2023-05-23T09:57:02.097Z,25.89
2023-05-23T10:00:11.648Z,25.93
2023-05-23T10:03:17.259Z,25.96
2023-05-23T10:06:26.414Z,26.00
2023-05-23T10:09:32.609Z,26.03
2023-05-23T10:12:44.500Z,26.06
2023-05-23T10:15:46.998Z,26.10
2023-05-23T10:18:55.890Z,26.14
2023-05-23T10:22:04.218Z,26.17
2023-05-23T10:25:07.977Z,26.19
2023-05-23T10:28:10.850Z,26.24
2023-05-23T10:31:12.749Z,26.33
2023-05-23T10:34:22.664Z,26.39
2023-05-23T10:37:35.922Z,26.43
2023-05-23T10:41:00.865Z,26.52
2023-05-23T10:44:16.255Z,26.60
2023-05-23T10:47:28.535Z,26.63
2023-05-23T10:50:34.986Z,26.68
2023-05-23T10:53:45.604Z,26.75
2023-05-23T10:57:02.475Z,26.83
2023-05-23T11:00:05.215Z,26.92
2023-05-23T11:03:08.478Z,26.93
2023-05-23T11:06:53.765Z,26.94
2023-05-23T11:10:13.472Z,26.98
2023-05-23T11:13:15.377Z,26.99
2023-05-23T11:16:24.133Z,26.98
2023-05-23T11:19:29.469Z,27.02
2023-05-23T11:22:31.946Z,27.06
2023-05-23T11:25:50.473Z,27.12
2023-05-23T11:28:59.261Z,27.17
2023-05-23T11:32:15.115Z,27.23
2023-05-23T11:35:20.793Z,27.27
2023-05-23T11:38:23.418Z,27.30
2023-05-23T11:41:25.754Z,27.25
2023-05-23T11:44:28.024Z,27.10
2023-05-23T11:47:30.650Z,26.91
2023-05-23T11:50:33.434Z,26.74
2023-05-23T11:53:35.315Z,26.57
2023-05-23T11:56:40.296Z,26.39
2023-05-23T11:59:42.109Z,26.20
2023-05-23T12:02:45.148Z,25.99
2023-05-23T12:05:47.330Z,25.76
2023-05-23T12:08:49.434Z,25.54
2023-05-23T12:11:51.429Z,25.31
2023-05-23T12:14:56.273Z,25.09
2023-05-23T12:17:58.677Z,24.84
2023-05-23T12:21:02.550Z,24.57
2023-05-23T12:24:20.916Z,24.27
2023-05-23T12:27:30.908Z,23.98
2023-05-23T12:30:42.386Z,23.74
2023-05-23T12:33:47.160Z,23.52
2023-05-23T12:36:55.124Z,23.32
2023-05-23T12:40:16.533Z,23.10
2023-05-23T12:43:18.576Z,22.88
2023-05-23T12:46:21.324Z,22.69
2023-05-23T12:49:23.260Z,22.50
2023-05-23T12:52:25.208Z,22.32
2023-05-23T12:55:27.202Z,22.15
2023-05-23T12:58:31.453Z,21.99
2023-05-23T13:01:34.568Z,21.82
2023-05-23T13:04:36.738Z,21.68
2023-05-23T13:07:38.786Z,21.53
2023-05-23T13:10:41.154Z,21.41
2023-05-23T13:13:43.090Z,21.27
2023-05-23T13:16:45.149Z,21.15
2023-05-23T13:19:46.929Z,21.04
2023-05-23T13:22:49.419Z,20.95
2023-05-23T13:25:51.849Z,20.84
2023-05-23T13:28:53.824Z,20.75
2023-05-23T13:31:58.570Z,20.68
2023-05-23T13:35:00.459Z,20.63
2023-05-23T13:38:02.446Z,20.58
2023-05-23T13:41:04.341Z,20.55
2023-05-23T13:44:06.261Z,20.54
2023-05-23T13:47:13.249Z,20.54
2023-05-23T13:50:15.505Z,20.54
2023-05-23T13:53:17.297Z,20.54
2023-05-23T13:56:19.178Z,20.56
2023-05-23T13:59:21.687Z,20.57
2023-05-23T14:02:23.545Z,20.56
2023-05-23T14:05:25.881Z,20.56
2023-05-23T14:08:27.703Z,20.57
2023-05-23T14:11:32.092Z,20.55
2023-05-23T14:14:33.908Z,20.53
2023-05-23T14:17:35.762Z,20.51
2023-05-23T14:20:37.573Z,20.49
2023-05-23T14:23:39.329Z,20.45
2023-05-23T14:26:41.055Z,20.42
2023-05-23T14:29:46.031Z,20.39
2023-05-23T14:32:47.824Z,20.36
2023-05-23T14:35:50.236Z,20.35
2023-05-23T14:38:52.148Z,20.33
2023-05-23T14:41:54.170Z,20.33
2023-05-23T14:44:55.917Z,20.33
2023-05-23T14:47:57.678Z,20.33
2023-05-23T14:51:01.112Z,20.32
2023-05-23T14:54:02.980Z,20.32
2023-05-23T14:57:04.860Z,20.33
2023-05-23T15:00:08.630Z,20.33
2023-05-23T15:03:10.948Z,20.34
2023-05-23T15:06:12.757Z,20.37
2023-05-23T15:09:14.797Z,20.42
2023-05-23T15:12:16.474Z,20.47
2023-05-23T15:15:22.392Z,20.54
2023-05-23T15:18:38.954Z,20.60
2023-05-23T15:21:50.590Z,20.66
2023-05-23T15:24:53.453Z,20.70
2023-05-23T15:27:55.751Z,20.73
2023-05-23T15:30:58.464Z,20.74
2023-05-23T15:34:02.651Z,20.73
2023-05-23T15:37:04.381Z,20.73
2023-05-23T15:40:06.621Z,20.72
2023-05-23T15:43:08.445Z,20.72
2023-05-23T15:46:10.280Z,20.70
2023-05-23T15:49:25.205Z,20.68
2023-05-23T15:52:28.677Z,20.65
2023-05-23T15:55:30.700Z,20.62
2023-05-23T15:58:32.436Z,20.60
2023-05-23T16:01:34.501Z,20.58
2023-05-23T16:04:36.417Z,20.56
2023-05-23T16:07:38.300Z,20.54
2023-05-23T16:10:40.371Z,20.53
2023-05-23T16:13:42.058Z,20.51
2023-05-23T16:16:44.166Z,20.51
2023-05-23T16:19:46.294Z,20.48
2023-05-23T16:22:51.302Z,20.48
2023-05-23T16:25:53.412Z,20.46
2023-05-23T16:28:55.196Z,20.44
2023-05-23T16:31:57.135Z,20.43
2023-05-23T16:34:58.955Z,20.42
2023-05-23T16:38:01.017Z,20.42
2023-05-23T16:41:02.780Z,20.41
2023-05-23T16:44:04.599Z,20.42
2023-05-23T16:47:06.530Z,20.41
2023-05-23T16:50:09.351Z,20.40
2023-05-23T16:53:11.732Z,20.40
2023-05-23T16:56:14.077Z,20.38
2023-05-23T16:59:15.923Z,20.38
2023-05-23T17:02:17.773Z,20.37
2023-05-23T17:05:20.819Z,20.36
2023-05-23T17:08:22.752Z,20.36
2023-05-23T17:11:24.976Z,20.35
2023-05-23T17:14:26.819Z,20.35
2023-05-23T17:17:28.577Z,20.34
2023-05-23T17:20:30.424Z,20.35
2023-05-23T17:23:32.238Z,20.34
2023-05-23T17:26:33.960Z,20.35
2023-05-23T17:29:35.747Z,20.32
2023-05-23T17:32:37.706Z,20.30
2023-05-23T17:35:39.692Z,20.29
2023-05-23T17:38:41.512Z,20.26
2023-05-23T17:41:43.295Z,20.25
2023-05-23T17:44:45.185Z,20.22
2023-05-23T17:47:47.330Z,20.21
2023-05-23T17:50:49.128Z,20.19
2023-05-23T17:53:53.053Z,20.18
2023-05-23T17:56:55.075Z,20.17
2023-05-23T17:59:57.450Z,20.16
2023-05-23T18:03:00.601Z,20.15
2023-05-23T18:06:02.758Z,20.14
2023-05-23T18:09:04.677Z,20.12
2023-05-23T18:12:06.493Z,20.10
2023-05-23T18:15:09.150Z,20.08
2023-05-23T18:18:11.590Z,20.05
2023-05-23T18:21:13.274Z,20.03
2023-05-23T18:24:15.189Z,20.02
2023-05-23T18:27:16.963Z,19.98
2023-05-23T18:30:18.658Z,19.96
2023-05-23T18:33:21.253Z,19.93
2023-05-23T18:36:23.642Z,19.90
2023-05-23T18:39:25.781Z,19.87
2023-05-23T18:42:27.387Z,19.85
2023-05-23T18:45:29.083Z,19.84
2023-05-23T18:48:32.402Z,19.81
2023-05-23T18:51:36.257Z,19.79
2023-05-23T18:54:38.045Z,19.77
2023-05-23T18:57:39.825Z,19.74
2023-05-23T19:00:43.739Z,19.73
2023-05-23T19:03:45.729Z,19.69
2023-05-23T19:06:47.603Z,19.68
2023-05-23T19:09:49.371Z,19.65
2023-05-23T19:12:51.857Z,19.64
2023-05-23T19:15:53.874Z,19.61
2023-05-23T19:18:56.800Z,19.59
2023-05-23T19:21:58.855Z,19.57
2023-05-23T19:25:00.833Z,19.54
2023-05-23T19:28:05.679Z,19.52
2023-05-23T19:31:07.467Z,19.49
2023-05-23T19:34:09.881Z,19.49
2023-05-23T19:37:11.718Z,19.46
2023-05-23T19:40:13.545Z,19.44
2023-05-23T19:43:15.545Z,19.43
2023-05-23T19:46:17.319Z,19.41
2023-05-23T19:49:20.293Z,19.40
2023-05-23T19:52:22.088Z,19.40
2023-05-23T19:55:25.107Z,19.40
2023-05-23T19:58:26.930Z,19.39
2023-05-23T20:01:30.167Z,19.38
2023-05-23T20:04:32.812Z,19.38
2023-05-23T20:07:35.897Z,19.37
2023-05-23T20:10:37.767Z,19.36
2023-05-23T20:13:40.616Z,19.35
2023-05-23T20:16:42.412Z,19.35
2023-05-23T20:19:44.327Z,19.34
2023-05-23T20:22:46.028Z,19.34
2023-05-23T20:25:47.856Z,19.33
2023-05-23T20:28:49.901Z,19.32
2023-05-23T20:31:52.641Z,19.31
2023-05-23T20:34:56.995Z,19.32
2023-05-23T20:37:58.759Z,19.30
2023-05-23T20:41:05.872Z,19.28
2023-05-23T20:44:11.838Z,19.27
2023-05-23T20:47:14.786Z,19.26
2023-05-23T20:50:18.950Z,19.26
2023-05-23T20:53:20.689Z,19.24
2023-05-23T20:56:23.932Z,19.23
2023-05-23T20:59:25.779Z,19.22
2023-05-23T21:02:27.558Z,19.20
2023-05-23T21:05:29.326Z,19.18
2023-05-23T21:08:33.106Z,19.16
2023-05-23T21:11:36.310Z,19.14
2023-05-23T21:14:38.144Z,19.12
2023-05-23T21:17:39.904Z,19.11
2023-05-23T21:20:41.794Z,19.09
2023-05-23T21:23:43.777Z,19.08
2023-05-23T21:26:45.533Z,19.06
2023-05-23T21:29:47.396Z,19.05
2023-05-23T21:32:49.508Z,19.04
2023-05-23T21:35:51.327Z,19.02
2023-05-23T21:38:53.016Z,19.02
2023-05-23T21:41:54.777Z,19.00
2023-05-23T21:44:57.520Z,18.99
2023-05-23T21:47:59.313Z,18.97
2023-05-23T21:51:01.119Z,18.95
2023-05-23T21:54:03.285Z,18.93
2023-05-23T21:57:05.006Z,18.92
2023-05-23T22:00:11.714Z,18.92
2023-05-23T22:03:16.329Z,18.89
2023-05-23T22:06:18.567Z,18.88
2023-05-23T22:09:21.950Z,18.87
2023-05-23T22:15:27.336Z,18.82
2023-05-23T22:18:34.619Z,18.80
2023-05-23T22:21:46.002Z,18.79
2023-05-23T22:24:49.153Z,18.76
2023-05-23T22:27:51.399Z,18.75
2023-05-23T22:30:53.419Z,18.73
2023-05-23T22:33:56.473Z,18.71
2023-05-23T22:37:00.286Z,18.70
2023-05-23T22:40:02.723Z,18.69
2023-05-23T22:43:05.431Z,18.68
2023-05-23T22:46:08.224Z,18.69
2023-05-23T22:49:10.215Z,18.67
2023-05-23T22:52:12.154Z,18.66
2023-05-23T22:55:14.173Z,18.65
2023-05-23T22:58:16.200Z,18.65
2023-05-23T23:01:18.234Z,18.64
2023-05-23T23:04:22.913Z,18.64
2023-05-23T23:07:24.926Z,18.64
2023-05-23T23:10:26.926Z,18.63
2023-05-23T23:13:29.084Z,18.63
2023-05-23T23:16:31.404Z,18.62
2023-05-23T23:19:34.771Z,18.64
2023-05-23T23:22:37.065Z,18.63
2023-05-23T23:25:39.753Z,18.62
2023-05-23T23:28:41.744Z,18.62
2023-05-23T23:31:43.844Z,18.62
2023-05-23T23:34:45.934Z,18.61
2023-05-23T23:37:49.196Z,18.61
2023-05-23T23:40:51.129Z,18.60
2023-05-23T23:43:53.238Z,18.60
2023-05-23T23:46:55.278Z,18.59
2023-05-23T23:49:57.176Z,18.59
2023-05-23T23:52:59.024Z,18.59
2023-05-23T23:56:00.776Z,18.58
2023-05-23T23:59:02.649Z,18.56
